createdAt,value
2022-09-17T00:00:39.293Z,9.73
2022-09-17T00:03:07.854Z,10.27
2022-09-17T00:05:37.479Z,9.80
2022-09-17T00:08:07.322Z,9.80
2022-09-17T00:10:38.855Z,9.10
2022-09-17T00:13:07.193Z,9.27
2022-09-17T00:15:40.484Z,8.97
2022-09-17T00:18:08.677Z,8.53
2022-09-17T00:20:40.121Z,8.73
2022-09-17T00:23:09.936Z,7.87
2022-09-17T00:25:39.323Z,8.83
2022-09-17T00:28:07.432Z,8.70
2022-09-17T00:30:35.653Z,8.30
2022-09-17T00:33:03.886Z,8.57
2022-09-17T00:35:32.142Z,8.70
2022-09-17T00:38:00.240Z,8.83
2022-09-17T00:40:29.852Z,8.40
2022-09-17T00:42:58.056Z,7.87
2022-09-17T00:45:26.271Z,7.90
2022-09-17T00:47:57.274Z,7.60
2022-09-17T00:50:28.767Z,8.03
2022-09-17T00:52:58.778Z,8.03
2022-09-17T00:55:31.727Z,8.50
2022-09-17T00:58:01.283Z,8.60
2022-09-17T01:00:30.918Z,9.43
2022-09-17T01:02:59.358Z,8.63
2022-09-17T01:05:32.646Z,9.23
2022-09-17T01:08:06.788Z,9.27
2022-09-17T01:10:58.929Z,9.10
2022-09-17T01:13:33.031Z,9.03
2022-09-17T01:16:04.689Z,9.37
2022-09-17T01:18:39.214Z,9.87
2022-09-17T01:21:47.699Z,9.67
2022-09-17T01:24:58.620Z,8.27
2022-09-17T01:28:09.739Z,9.23
2022-09-17T01:31:00.803Z,8.67
2022-09-17T01:33:31.556Z,9.70
2022-09-17T01:36:04.089Z,8.90
2022-09-17T01:38:34.598Z,9.93
2022-09-17T01:41:06.756Z,9.30
2022-09-17T01:43:37.132Z,9.47
2022-09-17T01:46:10.190Z,9.50
2022-09-17T01:48:40.432Z,9.10
2022-09-17T01:51:10.414Z,9.90
2022-09-17T01:53:41.086Z,9.63
2022-09-17T01:56:09.350Z,9.40
2022-09-17T01:58:39.792Z,10.13
2022-09-17T02:01:09.333Z,10.13
2022-09-17T02:03:39.660Z,8.97
2022-09-17T02:06:10.112Z,9.73
2022-09-17T02:08:40.607Z,9.77
2022-09-17T02:11:09.923Z,9.60
2022-09-17T02:13:39.852Z,9.90
2022-09-17T02:16:10.921Z,9.73
2022-09-17T02:18:39.558Z,9.10
2022-09-17T02:21:10.024Z,8.97
2022-09-17T02:23:40.992Z,9.47
2022-09-17T02:26:10.858Z,8.70
2022-09-17T02:28:42.767Z,8.30
2022-09-17T02:31:12.812Z,8.80
2022-09-17T02:33:41.823Z,8.33
2022-09-17T02:36:09.998Z,9.13
2022-09-17T02:38:39.390Z,9.37
2022-09-17T02:41:14.562Z,9.10
2022-09-17T02:43:44.879Z,8.73
2022-09-17T02:46:26.886Z,9.50
2022-09-17T02:49:16.188Z,8.90
2022-09-17T02:51:47.325Z,8.80
2022-09-17T02:54:19.488Z,8.77
2022-09-17T02:56:52.150Z,8.37
2022-09-17T02:59:21.863Z,8.30
2022-09-17T03:01:53.618Z,8.53
2022-09-17T03:04:21.713Z,8.87
2022-09-17T03:06:50.016Z,8.23
2022-09-17T03:09:18.235Z,8.40
2022-09-17T03:11:46.302Z,8.77
2022-09-17T03:14:14.358Z,8.33
2022-09-17T03:16:42.514Z,9.10
2022-09-17T03:19:11.958Z,8.97
2022-09-17T03:21:40.077Z,8.67
2022-09-17T03:24:08.816Z,8.93
2022-09-17T03:26:36.945Z,8.80
2022-09-17T03:29:05.090Z,9.40
2022-09-17T03:31:33.336Z,9.00
2022-09-17T03:34:01.648Z,9.43
2022-09-17T03:36:31.312Z,10.23
2022-09-17T03:38:59.493Z,9.40
2022-09-17T03:41:27.739Z,9.70
2022-09-17T03:43:55.984Z,10.33
2022-09-17T03:46:24.344Z,9.50
2022-09-17T03:48:52.452Z,9.83
2022-09-17T03:51:20.617Z,10.63
2022-09-17T03:53:50.333Z,8.90
2022-09-17T03:56:18.552Z,9.00
2022-09-17T03:58:46.650Z,9.33
2022-09-17T04:01:14.939Z,8.93
2022-09-17T04:03:43.411Z,9.57
2022-09-17T04:06:11.719Z,9.17
2022-09-17T04:08:39.866Z,8.90
2022-09-17T04:11:09.556Z,9.10
2022-09-17T04:13:37.723Z,9.83
2022-09-17T04:16:07.057Z,9.47
2022-09-17T04:18:35.653Z,9.73
2022-09-17T04:21:03.892Z,9.83
2022-09-17T04:23:32.262Z,10.07
2022-09-17T04:26:00.463Z,8.50
2022-09-17T04:28:29.943Z,9.63
2022-09-17T04:30:58.232Z,9.27
2022-09-17T04:33:26.544Z,9.33
2022-09-17T04:35:55.259Z,8.80
2022-09-17T04:38:23.467Z,9.00
2022-09-17T04:40:51.756Z,9.63
2022-09-17T04:43:20.035Z,9.83
2022-09-17T04:45:50.665Z,9.37
2022-09-17T04:48:18.906Z,9.53
2022-09-17T04:50:47.142Z,9.50
2022-09-17T04:53:15.238Z,9.93
2022-09-17T04:55:44.228Z,9.63
2022-09-17T04:58:12.414Z,10.50
2022-09-17T05:00:41.996Z,9.83
2022-09-17T05:03:11.590Z,10.27
2022-09-17T05:05:40.167Z,11.07
2022-09-17T05:08:08.624Z,10.57
2022-09-17T05:10:38.008Z,10.10
2022-09-17T05:13:06.285Z,11.87
2022-09-17T05:15:34.554Z,11.10
2022-09-17T05:18:03.072Z,12.30
2022-09-17T05:20:32.655Z,12.63
2022-09-17T05:23:00.759Z,12.50
2022-09-17T05:25:28.936Z,12.27
2022-09-17T05:27:57.307Z,11.70
2022-09-17T05:30:26.133Z,11.93
2022-09-17T05:33:00.472Z,10.80
2022-09-17T05:35:28.976Z,11.53
2022-09-17T05:38:02.050Z,10.13
2022-09-17T05:40:30.341Z,10.10
2022-09-17T05:43:01.459Z,9.77
2022-09-17T05:45:30.037Z,9.63
2022-09-17T05:47:58.519Z,8.93
2022-09-17T05:50:26.785Z,9.43
2022-09-17T05:52:54.900Z,9.60
2022-09-17T05:55:24.795Z,10.37
2022-09-17T05:57:53.163Z,9.50
2022-09-17T06:00:21.452Z,9.00
2022-09-17T06:02:55.247Z,9.87
2022-09-17T06:05:23.501Z,9.77
2022-09-17T06:07:51.636Z,8.90
2022-09-17T06:10:19.901Z,10.17
2022-09-17T06:12:49.363Z,8.40
2022-09-17T06:15:17.676Z,7.60
2022-09-17T06:17:45.780Z,7.50
2022-09-17T06:20:13.891Z,6.70
2022-09-17T06:22:42.039Z,7.57
2022-09-17T06:25:10.649Z,6.77
2022-09-17T06:27:38.914Z,6.73
2022-09-17T06:30:09.549Z,6.23
2022-09-17T06:32:37.648Z,6.67
2022-09-17T06:35:06.498Z,6.87
2022-09-17T06:37:35.764Z,7.30
2022-09-17T06:40:04.666Z,6.90
2022-09-17T06:42:33.072Z,6.17
2022-09-17T06:45:07.134Z,6.47
2022-09-17T06:47:38.235Z,5.70
2022-09-17T06:50:07.549Z,5.70
2022-09-17T06:52:35.745Z,5.20
2022-09-17T06:55:03.948Z,5.20
2022-09-17T06:57:32.032Z,5.00
2022-09-17T07:00:00.224Z,5.07
2022-09-17T07:02:28.510Z,5.93
2022-09-17T07:04:58.209Z,6.23
2022-09-17T07:07:26.853Z,6.13
2022-09-17T07:09:55.074Z,5.40
2022-09-17T07:12:23.485Z,5.13
2022-09-17T07:14:51.726Z,5.27
2022-09-17T07:17:20.458Z,5.23
2022-09-17T07:19:48.630Z,6.33
2022-09-17T07:22:18.948Z,6.53
2022-09-17T07:24:47.335Z,6.17
2022-09-17T07:27:15.712Z,6.13
2022-09-17T07:29:43.906Z,6.13
2022-09-17T07:32:12.106Z,4.90
2022-09-17T07:34:40.247Z,4.80
2022-09-17T07:37:08.615Z,5.30
2022-09-17T07:39:38.172Z,5.43
2022-09-17T07:42:06.717Z,5.27
2022-09-17T07:44:34.938Z,5.13
2022-09-17T07:47:03.077Z,4.80
2022-09-17T07:49:31.217Z,4.30
2022-09-17T07:52:00.660Z,3.90
2022-09-17T07:54:28.890Z,4.07
2022-09-17T07:56:58.675Z,4.40
2022-09-17T07:59:26.781Z,4.73
2022-09-17T08:01:55.064Z,3.97
2022-09-17T08:04:23.495Z,4.17
2022-09-17T08:06:51.623Z,4.30
2022-09-17T08:09:19.800Z,4.00
2022-09-17T08:11:56.433Z,3.43
2022-09-17T08:14:29.704Z,4.20
2022-09-17T08:16:58.326Z,4.50
2022-09-17T08:19:27.331Z,4.03
2022-09-17T08:21:55.481Z,3.77
2022-09-17T08:24:23.646Z,3.10
2022-09-17T08:26:51.957Z,3.30
2022-09-17T08:29:20.137Z,3.57
2022-09-17T08:31:49.761Z,3.27
2022-09-17T08:34:17.886Z,2.70
2022-09-17T08:36:46.203Z,2.53
2022-09-17T08:39:14.353Z,2.77
2022-09-17T08:41:52.853Z,2.67
2022-09-17T08:44:28.960Z,2.50
2022-09-17T08:47:02.364Z,2.07
2022-09-17T08:49:34.113Z,2.07
2022-09-17T08:52:37.953Z,2.17
2022-09-17T08:55:10.990Z,1.97
2022-09-17T08:57:41.566Z,1.80
2022-09-17T09:00:12.456Z,2.10
2022-09-17T09:02:57.207Z,2.27
2022-09-17T09:05:26.942Z,2.53
2022-09-17T09:07:57.981Z,1.80
2022-09-17T09:10:29.038Z,1.90
2022-09-17T09:12:57.548Z,1.93
2022-09-17T09:15:31.852Z,2.40
2022-09-17T09:18:04.482Z,1.90
2022-09-17T09:20:37.186Z,2.37
2022-09-17T09:23:07.940Z,2.50
2022-09-17T09:25:41.140Z,2.40
2022-09-17T09:28:16.687Z,2.13
2022-09-17T09:30:52.453Z,2.17
2022-09-17T09:33:25.923Z,2.00
2022-09-17T09:35:54.160Z,2.30
2022-09-17T09:38:25.123Z,2.23
2022-09-17T09:40:55.252Z,2.10
2022-09-17T09:43:36.477Z,1.97
2022-09-17T09:46:42.468Z,2.20
2022-09-17T09:49:17.038Z,2.37
2022-09-17T09:51:52.436Z,2.40
2022-09-17T09:54:29.824Z,2.27
2022-09-17T09:56:59.337Z,2.30
2022-09-17T09:59:27.584Z,2.50
2022-09-17T10:01:55.846Z,2.47
2022-09-17T10:04:26.702Z,2.20
2022-09-17T10:06:56.094Z,2.20
2022-09-17T10:09:24.230Z,2.20
2022-09-17T10:12:03.177Z,2.40
2022-09-17T10:14:31.988Z,2.50
2022-09-17T10:17:13.152Z,2.93
2022-09-17T10:19:42.820Z,2.60
2022-09-17T10:22:24.106Z,3.43
2022-09-17T10:24:52.889Z,3.00
2022-09-17T10:27:21.258Z,3.60
2022-09-17T10:29:51.160Z,3.13
2022-09-17T10:32:20.258Z,3.20
2022-09-17T10:35:00.722Z,3.77
2022-09-17T10:37:35.202Z,3.40
2022-09-17T10:40:03.800Z,3.53
2022-09-17T10:42:31.982Z,3.10
2022-09-17T10:45:00.994Z,3.40
2022-09-17T10:47:30.407Z,2.97
2022-09-17T10:50:01.503Z,2.93
2022-09-17T10:52:31.862Z,2.90
2022-09-17T10:55:16.305Z,2.97
2022-09-17T10:57:55.250Z,2.90
2022-09-17T11:00:24.284Z,2.77
2022-09-17T11:03:23.041Z,2.70
2022-09-17T11:06:15.772Z,2.60
2022-09-17T11:08:48.674Z,3.40
2022-09-17T11:11:19.931Z,3.93
2022-09-17T11:13:51.466Z,3.43
2022-09-17T11:16:27.751Z,4.00
2022-09-17T11:18:58.020Z,3.90
2022-09-17T11:21:38.846Z,3.37
2022-09-17T11:24:40.883Z,3.53
2022-09-17T11:27:12.358Z,3.40
2022-09-17T11:29:47.898Z,3.40
2022-09-17T11:32:22.476Z,3.20
2022-09-17T11:34:54.172Z,3.30
2022-09-17T11:37:24.832Z,3.63
2022-09-17T11:39:55.384Z,3.87
2022-09-17T11:42:26.259Z,3.40
2022-09-17T11:44:55.898Z,3.20
2022-09-17T11:47:25.195Z,3.40
2022-09-17T11:49:55.324Z,3.50
2022-09-17T11:52:27.268Z,3.30
2022-09-17T11:54:58.740Z,3.30
2022-09-17T11:57:28.224Z,2.53
2022-09-17T11:59:58.397Z,3.00
2022-09-17T12:02:28.976Z,3.10
2022-09-17T12:05:00.180Z,2.67
2022-09-17T12:07:38.123Z,2.83
2022-09-17T12:10:23.003Z,2.67
2022-09-17T12:12:54.654Z,2.90
2022-09-17T12:15:24.404Z,3.37
2022-09-17T12:18:20.659Z,3.47
2022-09-17T12:20:47.671Z,3.77
2022-09-17T12:23:19.391Z,3.70
2022-09-17T12:25:50.215Z,3.50
2022-09-17T12:28:21.046Z,3.80
2022-09-17T12:30:51.526Z,5.20
2022-09-17T12:33:26.101Z,3.87
2022-09-17T12:36:19.546Z,3.30
2022-09-17T12:39:08.236Z,3.60
2022-09-17T12:41:44.579Z,3.50
2022-09-17T12:44:22.628Z,3.70
2022-09-17T12:47:01.262Z,3.43
2022-09-17T12:49:54.715Z,3.17
2022-09-17T12:52:27.304Z,3.20
2022-09-17T12:55:28.645Z,3.03
2022-09-17T12:58:01.088Z,2.70
2022-09-17T13:00:37.937Z,3.00
2022-09-17T13:03:07.663Z,2.80
2022-09-17T13:05:44.791Z,2.83
2022-09-17T13:08:48.380Z,3.77
2022-09-17T13:11:43.417Z,3.83
2022-09-17T13:14:14.690Z,3.37
2022-09-17T13:16:44.574Z,3.50
2022-09-17T13:19:17.431Z,3.70
2022-09-17T13:21:50.399Z,3.97
2022-09-17T13:24:19.405Z,3.93
2022-09-17T13:26:49.004Z,3.53
2022-09-17T13:29:50.478Z,3.57
2022-09-17T13:33:04.111Z,3.20
2022-09-17T13:35:47.599Z,3.50
2022-09-17T13:38:16.451Z,3.23
2022-09-17T13:40:46.757Z,3.40
2022-09-17T13:43:17.988Z,3.13
2022-09-17T13:46:15.774Z,3.33
2022-09-17T13:48:50.538Z,3.70
2022-09-17T13:51:47.091Z,4.10
2022-09-17T13:54:15.262Z,4.10
2022-09-17T13:56:46.156Z,4.43
2022-09-17T13:59:17.813Z,4.47
2022-09-17T14:02:00.780Z,4.67
2022-09-17T14:04:35.449Z,4.87
2022-09-17T14:07:06.094Z,4.33
2022-09-17T14:09:53.049Z,4.90
2022-09-17T14:12:56.258Z,4.73
2022-09-17T14:15:56.559Z,4.67
2022-09-17T14:18:46.702Z,5.00
2022-09-17T14:21:17.621Z,4.63
2022-09-17T14:23:47.286Z,4.77
2022-09-17T14:26:21.254Z,4.70
2022-09-17T14:28:51.673Z,4.30
2022-09-17T14:31:23.740Z,4.83
2022-09-17T14:33:51.920Z,4.80
2022-09-17T14:36:21.360Z,4.17
2022-09-17T14:38:50.351Z,4.50
2022-09-17T14:41:21.095Z,4.57
2022-09-17T14:43:51.058Z,4.70
2022-09-17T14:46:21.732Z,4.60
2022-09-17T14:48:50.789Z,5.20
2022-09-17T14:51:29.717Z,4.47
2022-09-17T14:54:15.620Z,4.50
2022-09-17T14:56:48.094Z,4.63
2022-09-17T14:59:21.160Z,4.17
2022-09-17T15:01:50.821Z,5.00
2022-09-17T15:04:23.051Z,4.40
2022-09-17T15:06:51.760Z,4.40
2022-09-17T15:09:20.977Z,4.80
2022-09-17T15:11:49.189Z,5.03
2022-09-17T15:14:19.264Z,4.93
2022-09-17T15:16:50.661Z,4.80
2022-09-17T15:19:23.307Z,4.93
2022-09-17T15:21:51.467Z,5.67
2022-09-17T15:24:22.570Z,7.17
2022-09-17T15:26:52.308Z,5.93
2022-09-17T15:29:20.722Z,6.20
2022-09-17T15:31:50.324Z,6.43
2022-09-17T15:34:18.523Z,7.47
2022-09-17T15:37:04.693Z,6.10
2022-09-17T15:39:38.112Z,6.70
2022-09-17T15:42:06.418Z,7.73
2022-09-17T15:44:34.532Z,6.67
2022-09-17T15:47:50.324Z,7.07
2022-09-17T15:50:19.923Z,7.20
2022-09-17T15:52:48.269Z,7.77
2022-09-17T15:55:33.292Z,7.43
2022-09-17T15:58:01.814Z,7.50
2022-09-17T16:00:30.083Z,7.77
2022-09-17T16:02:59.765Z,6.83
2022-09-17T16:05:56.312Z,7.47
2022-09-17T16:08:25.595Z,8.20
2022-09-17T16:10:53.881Z,7.83
2022-09-17T16:13:25.286Z,8.87
2022-09-17T16:15:56.905Z,10.93
2022-09-17T16:18:27.765Z,11.07
2022-09-17T16:20:56.078Z,10.53
2022-09-17T16:23:24.373Z,10.73
2022-09-17T16:25:52.555Z,11.00
2022-09-17T16:28:20.971Z,13.30
2022-09-17T16:30:49.849Z,14.30
2022-09-17T16:33:18.519Z,15.20
2022-09-17T16:35:48.040Z,11.80
2022-09-17T16:38:16.214Z,13.17
2022-09-17T16:40:45.349Z,14.37
2022-09-17T16:43:13.628Z,11.50
2022-09-17T16:45:41.870Z,11.33
2022-09-17T16:48:10.056Z,10.90
2022-09-17T16:50:41.512Z,11.17
2022-09-17T16:53:11.078Z,11.43
2022-09-17T16:55:40.264Z,13.23
2022-09-17T16:58:08.400Z,13.97
2022-09-17T17:00:37.406Z,13.43
2022-09-17T17:03:07.002Z,14.67
2022-09-17T17:05:37.637Z,13.40
2022-09-17T17:08:06.998Z,13.00
2022-09-17T17:10:38.469Z,13.37
2022-09-17T17:13:06.638Z,14.13
2022-09-17T17:15:34.738Z,14.70
2022-09-17T17:18:02.915Z,14.03
2022-09-17T17:20:32.153Z,14.40
2022-09-17T17:23:00.279Z,12.77
2022-09-17T17:25:28.711Z,12.80
2022-09-17T17:27:58.381Z,14.27
2022-09-17T17:30:26.853Z,13.10
2022-09-17T17:32:55.040Z,12.97
2022-09-17T17:35:23.790Z,12.50
2022-09-17T17:37:52.041Z,11.43
2022-09-17T17:40:20.355Z,18.03
2022-09-17T17:42:53.166Z,22.07
2022-09-17T17:45:22.889Z,21.50
2022-09-17T17:47:51.146Z,15.50
2022-09-17T17:50:19.999Z,15.97
2022-09-17T17:52:49.265Z,16.80
2022-09-17T17:55:17.788Z,17.07
2022-09-17T17:57:46.297Z,17.60
2022-09-17T18:00:16.665Z,17.07
2022-09-17T18:02:46.314Z,17.77
2022-09-17T18:05:14.642Z,17.47
2022-09-17T18:07:43.071Z,18.50
2022-09-17T18:10:11.645Z,19.03
2022-09-17T18:12:39.891Z,16.13
2022-09-17T18:15:08.716Z,19.27
2022-09-17T18:17:36.881Z,18.97
2022-09-17T18:20:07.358Z,19.03
2022-09-17T18:22:35.464Z,18.37
2022-09-17T18:25:03.655Z,16.10
2022-09-17T18:27:31.747Z,16.20
2022-09-17T18:30:00.129Z,16.63
2022-09-17T18:32:28.276Z,15.80
2022-09-17T18:34:56.490Z,16.70
2022-09-17T18:37:26.010Z,15.60
2022-09-17T18:39:59.046Z,11.90
2022-09-17T18:42:27.831Z,11.40
2022-09-17T18:44:56.134Z,11.70
2022-09-17T18:47:24.533Z,10.43
2022-09-17T18:49:52.814Z,10.90
2022-09-17T18:52:20.914Z,10.50
2022-09-17T18:54:50.521Z,9.33
2022-09-17T18:57:18.686Z,7.70
2022-09-17T18:59:47.090Z,8.17
2022-09-17T19:02:15.335Z,7.93
2022-09-17T19:04:43.462Z,8.23
2022-09-17T19:07:11.629Z,7.90
2022-09-17T19:09:39.776Z,7.47
2022-09-17T19:12:09.591Z,7.57
2022-09-17T19:14:37.777Z,8.57
2022-09-17T19:17:05.967Z,8.70
2022-09-17T19:19:34.151Z,7.77
2022-09-17T19:22:02.475Z,8.00
2022-09-17T19:24:30.674Z,8.20
2022-09-17T19:27:01.447Z,7.43
2022-09-17T19:29:30.991Z,7.03
2022-09-17T19:31:59.106Z,7.13
2022-09-17T19:34:27.651Z,6.20
2022-09-17T19:36:55.793Z,6.40
2022-09-17T19:39:23.898Z,6.53
2022-09-17T19:41:52.043Z,6.83
2022-09-17T19:44:20.389Z,6.20
2022-09-17T19:46:51.236Z,6.17
2022-09-17T19:49:19.756Z,5.40
2022-09-17T19:51:47.937Z,6.20
2022-09-17T19:54:16.050Z,5.77
2022-09-17T19:56:46.493Z,6.57
2022-09-17T19:59:14.848Z,6.13
2022-09-17T20:01:49.101Z,5.30
2022-09-17T20:04:19.313Z,4.97
2022-09-17T20:06:47.758Z,5.33
2022-09-17T20:09:15.940Z,4.50
2022-09-17T20:11:44.069Z,4.43
2022-09-17T20:14:12.246Z,4.00
2022-09-17T20:16:40.792Z,4.33
2022-09-17T20:19:08.941Z,4.07
2022-09-17T20:21:38.472Z,3.60
2022-09-17T20:24:07.232Z,3.73
2022-09-17T20:26:35.584Z,3.83
2022-09-17T20:29:03.875Z,3.43
2022-09-17T20:31:33.337Z,3.43
2022-09-17T20:34:02.843Z,3.50
2022-09-17T20:36:33.341Z,2.50
2022-09-17T20:39:13.184Z,2.50
2022-09-17T20:41:43.190Z,2.80
2022-09-17T20:44:11.369Z,3.07
2022-09-17T20:46:39.635Z,2.73
2022-09-17T20:49:07.832Z,2.43
2022-09-17T20:51:35.989Z,2.40
2022-09-17T20:54:05.651Z,3.10
2022-09-17T20:56:34.520Z,2.60
2022-09-17T20:59:08.521Z,2.40
2022-09-17T21:01:37.993Z,2.40
2022-09-17T21:04:07.262Z,2.70
2022-09-17T21:06:36.414Z,2.60
2022-09-17T21:09:06.814Z,3.20
2022-09-17T21:11:35.427Z,3.30
2022-09-17T21:14:03.539Z,2.73
2022-09-17T21:16:31.981Z,3.10
2022-09-17T21:19:01.769Z,3.30
2022-09-17T21:21:29.971Z,2.63
2022-09-17T21:24:01.221Z,2.97
2022-09-17T21:26:30.975Z,2.83
2022-09-17T21:28:59.286Z,3.07
2022-09-17T21:31:31.970Z,3.00
2022-09-17T21:34:01.535Z,3.00
2022-09-17T21:36:30.645Z,2.40
2022-09-17T21:38:59.453Z,2.70
2022-09-17T21:41:27.643Z,2.50
2022-09-17T21:43:57.147Z,2.97
2022-09-17T21:46:26.426Z,3.10
2022-09-17T21:48:56.021Z,3.17
2022-09-17T21:51:25.032Z,2.87
2022-09-17T21:53:53.286Z,3.17
2022-09-17T21:56:21.618Z,2.70
2022-09-17T21:58:52.064Z,2.87
2022-09-17T22:01:22.879Z,2.90
2022-09-17T22:03:51.127Z,3.13
2022-09-17T22:06:20.128Z,2.80
2022-09-17T22:08:48.533Z,2.40
2022-09-17T22:11:17.669Z,3.47
2022-09-17T22:13:52.065Z,2.50
2022-09-17T22:16:21.711Z,2.90
2022-09-17T22:18:50.615Z,2.70
2022-09-17T22:21:21.116Z,3.50
2022-09-17T22:23:50.299Z,4.17
2022-09-17T22:26:19.236Z,3.00
2022-09-17T22:28:47.892Z,3.40
2022-09-17T22:31:16.037Z,2.80
2022-09-17T22:33:46.669Z,3.37
2022-09-17T22:36:15.923Z,2.50
2022-09-17T22:38:47.391Z,3.37
2022-09-17T22:41:16.401Z,3.20
2022-09-17T22:43:44.535Z,3.17
2022-09-17T22:46:14.215Z,3.03
2022-09-17T22:48:42.401Z,3.97
2022-09-17T22:51:12.313Z,4.47
2022-09-17T22:53:40.625Z,4.90
2022-09-17T22:56:11.099Z,4.87
2022-09-17T22:58:39.182Z,5.43
2022-09-17T23:01:08.312Z,5.37
2022-09-17T23:03:36.444Z,5.73
2022-09-17T23:06:05.929Z,5.47
2022-09-17T23:08:35.611Z,5.50
2022-09-17T23:11:03.912Z,5.40
2022-09-17T23:13:32.138Z,4.87
2022-09-17T23:16:02.305Z,6.23
2022-09-17T23:18:30.546Z,5.27
2022-09-17T23:20:59.582Z,6.00
2022-09-17T23:23:27.742Z,5.70
2022-09-17T23:25:57.357Z,5.00
2022-09-17T23:28:25.531Z,5.03
2022-09-17T23:30:53.800Z,6.80
2022-09-17T23:33:22.062Z,6.93
2022-09-17T23:35:50.275Z,7.00
2022-09-17T23:38:18.499Z,6.83
2022-09-17T23:40:47.152Z,6.73
2022-09-17T23:43:16.646Z,6.37
2022-09-17T23:45:44.747Z,6.23
2022-09-17T23:48:13.067Z,6.60
2022-09-17T23:50:41.351Z,6.73
2022-09-17T23:53:09.912Z,6.40
2022-09-17T23:55:38.334Z,5.97
2022-09-17T23:58:07.974Z,6.43
